createdAt,value
2018-04-16T00:01:48.520Z,5.50
2018-04-16T00:04:15.569Z,6.10
2018-04-16T00:06:42.580Z,5.43
2018-04-16T00:09:08.832Z,5.87
2018-04-16T00:11:35.210Z,6.20
2018-04-16T00:14:01.466Z,5.40
2018-04-16T00:16:27.757Z,5.30
2018-04-16T00:18:54.776Z,6.17
2018-04-16T00:21:21.070Z,5.97
2018-04-16T00:23:47.343Z,6.30
2018-04-16T00:26:14.395Z,6.77
2018-04-16T00:28:41.435Z,5.87
2018-04-16T00:31:08.494Z,6.80
2018-04-16T00:33:41.594Z,6.17
2018-04-16T00:36:14.797Z,5.70
2018-04-16T00:38:47.208Z,5.57
2018-04-16T00:41:19.529Z,5.63
2018-04-16T00:43:52.591Z,5.90
2018-04-16T00:46:24.883Z,5.60
2018-04-16T00:48:58.066Z,5.40
2018-04-16T00:51:30.309Z,4.60
2018-04-16T00:54:15.003Z,4.40
2018-04-16T00:56:48.042Z,5.40
2018-04-16T00:59:20.287Z,5.37
2018-04-16T01:04:57.482Z,5.13
2018-04-16T01:07:29.752Z,6.33
2018-04-16T01:10:02.757Z,6.00
2018-04-16T01:12:35.174Z,5.10
2018-04-16T01:15:07.510Z,6.10
2018-04-16T01:17:39.710Z,5.90
2018-04-16T01:20:12.110Z,5.13
2018-04-16T01:22:45.140Z,6.07
2018-04-16T01:25:17.470Z,5.90
2018-04-16T01:27:49.733Z,5.27
2018-04-16T01:30:22.030Z,4.73
2018-04-16T01:32:54.279Z,5.80
2018-04-16T01:35:26.563Z,5.83
2018-04-16T01:37:58.941Z,5.30
2018-04-16T01:40:31.273Z,4.90
2018-04-16T01:43:03.553Z,5.07
2018-04-16T01:45:35.862Z,6.10
2018-04-16T01:51:17.374Z,5.53
2018-04-16T01:53:49.634Z,5.07
2018-04-16T01:56:21.990Z,5.15
2018-04-16T01:58:55.346Z,5.18
2018-04-16T02:01:27.590Z,5.47
2018-04-16T02:03:59.813Z,5.43
2018-04-16T02:06:32.274Z,5.57
2018-04-16T02:09:04.530Z,6.05
2018-04-16T02:11:36.940Z,5.50
2018-04-16T02:14:09.209Z,5.60
2018-04-16T02:16:41.445Z,6.30
2018-04-16T02:19:13.713Z,5.77
2018-04-16T02:21:46.861Z,5.20
2018-04-16T02:24:19.809Z,5.10
2018-04-16T02:26:52.118Z,5.00
2018-04-16T02:29:24.486Z,6.03
2018-04-16T02:31:56.907Z,6.10
2018-04-16T02:34:29.222Z,5.32
2018-04-16T02:37:02.486Z,5.12
2018-04-16T02:39:34.778Z,4.70
2018-04-16T02:45:17.146Z,5.45
2018-04-16T02:47:49.626Z,6.20
2018-04-16T02:50:21.979Z,5.07
2018-04-16T02:52:54.364Z,6.37
2018-04-16T02:55:26.911Z,5.63
2018-04-16T02:57:59.990Z,5.83
2018-04-16T03:00:32.362Z,5.75
2018-04-16T03:03:04.762Z,5.07
2018-04-16T03:05:37.126Z,6.25
2018-04-16T03:08:10.214Z,6.60
2018-04-16T03:10:43.373Z,5.10
2018-04-16T03:13:15.641Z,5.87
2018-04-16T03:15:47.846Z,5.32
2018-04-16T03:18:20.142Z,6.43
2018-04-16T03:20:52.742Z,5.50
2018-04-16T03:23:24.958Z,6.70
2018-04-16T03:25:58.049Z,5.25
2018-04-16T03:28:31.146Z,5.03
2018-04-16T03:31:03.403Z,5.40
2018-04-16T03:33:36.358Z,5.45
2018-04-16T03:36:08.607Z,4.45
2018-04-16T03:38:40.838Z,5.18
2018-04-16T03:41:14.082Z,5.00
2018-04-16T03:43:46.423Z,5.72
2018-04-16T03:46:18.674Z,6.13
2018-04-16T03:48:51.786Z,5.25
2018-04-16T03:51:24.133Z,5.57
2018-04-16T03:53:51.206Z,5.50
2018-04-16T03:56:17.470Z,5.10
2018-04-16T03:58:43.779Z,5.82
2018-04-16T04:01:10.030Z,5.47
2018-04-16T04:03:36.305Z,4.80
2018-04-16T04:06:02.607Z,5.72
2018-04-16T04:08:28.865Z,5.07
2018-04-16T04:10:55.908Z,4.90
2018-04-16T04:13:22.200Z,5.45
2018-04-16T04:15:48.461Z,5.05
2018-04-16T04:18:15.478Z,5.33
2018-04-16T04:20:41.730Z,5.20
2018-04-16T04:23:20.965Z,5.00
2018-04-16T04:26:00.271Z,6.78
2018-04-16T04:28:38.791Z,7.43
2018-04-16T04:31:05.044Z,5.20
2018-04-16T04:33:32.081Z,5.53
2018-04-16T04:35:58.351Z,5.90
2018-04-16T04:38:25.343Z,5.60
2018-04-16T04:40:51.615Z,5.60
2018-04-16T04:43:17.927Z,5.60
2018-04-16T04:45:44.225Z,4.90
2018-04-16T04:48:10.479Z,5.43
2018-04-16T04:50:36.749Z,5.30
2018-04-16T04:53:03.117Z,5.47
2018-04-16T04:55:29.358Z,5.22
2018-04-16T04:57:55.600Z,7.00
2018-04-16T05:00:21.890Z,5.30
2018-04-16T05:02:48.158Z,5.55
2018-04-16T05:05:14.414Z,5.70
2018-04-16T05:07:41.455Z,7.40
2018-04-16T05:10:08.466Z,6.50
2018-04-16T05:12:34.741Z,5.97
2018-04-16T05:15:01.770Z,5.30
2018-04-16T05:17:28.050Z,5.43
2018-04-16T05:19:54.381Z,6.87
2018-04-16T05:22:20.674Z,6.17
2018-04-16T05:24:47.669Z,6.60
2018-04-16T05:27:14.716Z,6.12
2018-04-16T05:29:40.994Z,6.20
2018-04-16T05:32:08.079Z,6.20
2018-04-16T05:34:34.465Z,7.00
2018-04-16T05:37:00.834Z,6.20
2018-04-16T05:39:27.170Z,6.60
2018-04-16T05:41:53.463Z,6.82
2018-04-16T05:44:20.461Z,6.60
2018-04-16T05:46:46.763Z,7.33
2018-04-16T05:49:13.090Z,7.93
2018-04-16T05:51:39.342Z,8.63
2018-04-16T05:54:06.554Z,6.87
2018-04-16T05:56:32.798Z,6.60
2018-04-16T05:58:59.795Z,6.50
2018-04-16T06:01:26.074Z,6.63
2018-04-16T06:03:53.070Z,5.97
2018-04-16T06:06:19.383Z,6.97
2018-04-16T06:08:45.699Z,6.50
2018-04-16T06:11:11.964Z,7.93
2018-04-16T06:13:38.272Z,6.67
2018-04-16T06:16:05.290Z,6.77
2018-04-16T06:18:32.310Z,6.20
2018-04-16T06:20:58.569Z,6.87
2018-04-16T06:23:25.627Z,6.03
2018-04-16T06:25:51.901Z,6.87
2018-04-16T06:28:18.217Z,5.90
2018-04-16T06:30:44.534Z,6.37
2018-04-16T06:33:10.793Z,6.50
2018-04-16T06:35:37.096Z,5.77
2018-04-16T06:38:03.398Z,5.67
2018-04-16T06:40:30.374Z,6.50
2018-04-16T06:42:56.679Z,8.23
2018-04-16T06:45:22.993Z,6.03
2018-04-16T06:47:50.010Z,7.57
2018-04-16T06:50:16.292Z,7.10
2018-04-16T06:52:42.653Z,6.80
2018-04-16T06:55:08.912Z,6.60
2018-04-16T06:57:35.290Z,6.07
2018-04-16T07:00:01.685Z,7.40
2018-04-16T07:02:28.732Z,6.97
2018-04-16T07:04:55.006Z,6.90
2018-04-16T07:07:21.299Z,6.50
2018-04-16T07:09:48.324Z,6.90
2018-04-16T07:12:14.650Z,6.00
2018-04-16T07:14:40.934Z,5.77
2018-04-16T07:17:07.240Z,7.10
2018-04-16T07:19:33.520Z,6.60
2018-04-16T07:21:59.851Z,6.40
2018-04-16T07:24:26.149Z,7.30
2018-04-16T07:26:52.490Z,7.57
2018-04-16T07:29:18.797Z,5.90
2018-04-16T07:31:46.125Z,6.00
2018-04-16T07:34:12.418Z,6.50
2018-04-16T07:36:38.739Z,7.53
2018-04-16T07:39:05.037Z,5.73
2018-04-16T07:41:32.055Z,6.33
2018-04-16T07:43:58.377Z,5.40
2018-04-16T07:46:24.674Z,5.57
2018-04-16T07:48:50.961Z,5.90
2018-04-16T07:51:18.030Z,6.00
2018-04-16T07:53:45.067Z,6.67
2018-04-16T07:56:12.071Z,5.33
2018-04-16T07:58:38.381Z,5.50
2018-04-16T08:01:04.670Z,5.63
2018-04-16T08:03:30.931Z,4.70
2018-04-16T08:05:57.237Z,5.90
2018-04-16T08:08:24.287Z,8.73
2018-04-16T08:10:51.337Z,4.90
2018-04-16T08:13:18.661Z,4.13
2018-04-16T08:15:44.956Z,4.30
2018-04-16T08:18:11.258Z,4.60
2018-04-16T08:20:37.582Z,5.30
2018-04-16T08:23:03.897Z,5.30
2018-04-16T08:25:30.159Z,4.97
2018-04-16T08:27:56.514Z,5.87
2018-04-16T08:30:22.820Z,6.50
2018-04-16T08:32:49.070Z,4.30
2018-04-16T08:35:15.368Z,5.20
2018-04-16T08:37:42.369Z,4.93
2018-04-16T08:40:08.648Z,4.80
2018-04-16T08:42:34.966Z,4.10
2018-04-16T08:45:02.030Z,5.10
2018-04-16T08:47:29.048Z,4.83
2018-04-16T08:49:55.486Z,4.10
2018-04-16T08:52:21.795Z,5.93
2018-04-16T08:54:48.086Z,4.83
2018-04-16T08:57:14.389Z,5.13
2018-04-16T08:59:41.634Z,5.57
2018-04-16T09:02:07.914Z,6.43
2018-04-16T09:04:34.241Z,4.70
2018-04-16T09:07:00.515Z,4.90
2018-04-16T09:09:26.802Z,4.70
2018-04-16T09:11:53.090Z,5.33
2018-04-16T09:14:20.094Z,5.10
2018-04-16T09:16:46.350Z,5.90
2018-04-16T09:19:12.638Z,5.30
2018-04-16T09:21:38.896Z,5.70
2018-04-16T09:24:05.172Z,4.53
2018-04-16T09:26:32.201Z,5.50
2018-04-16T09:29:00.293Z,4.70
2018-04-16T09:31:26.552Z,5.10
2018-04-16T09:33:52.863Z,4.67
2018-04-16T09:36:19.146Z,5.37
2018-04-16T09:38:45.443Z,5.20
2018-04-16T09:41:11.754Z,4.23
2018-04-16T09:43:38.030Z,6.10
2018-04-16T09:46:04.326Z,9.03
2018-04-16T09:48:30.621Z,6.00
2018-04-16T09:50:57.640Z,3.90
2018-04-16T09:53:23.915Z,4.70
2018-04-16T09:55:50.254Z,4.50
2018-04-16T09:58:16.559Z,3.97
2018-04-16T10:00:53.592Z,3.87
2018-04-16T10:03:22.928Z,6.50
2018-04-16T10:05:49.306Z,6.93
2018-04-16T10:08:16.383Z,7.20
2018-04-16T10:10:42.798Z,5.97
2018-04-16T10:13:09.088Z,6.67
2018-04-16T10:15:35.424Z,6.90
2018-04-16T10:18:02.537Z,6.20
2018-04-16T10:20:28.855Z,3.97
2018-04-16T10:22:55.113Z,5.00
2018-04-16T10:25:21.400Z,4.53
2018-04-16T10:27:47.654Z,10.53
2018-04-16T10:30:14.005Z,4.53
2018-04-16T10:32:41.017Z,4.27
2018-04-16T10:35:07.367Z,3.93
2018-04-16T10:37:33.692Z,4.40
2018-04-16T10:39:59.963Z,3.33
2018-04-16T10:42:26.984Z,3.97
2018-04-16T10:44:53.302Z,3.83
2018-04-16T10:47:19.564Z,3.77
2018-04-16T10:49:46.619Z,3.97
2018-04-16T10:52:13.674Z,4.43
2018-04-16T10:54:40.710Z,4.00
2018-04-16T10:57:07.754Z,3.33
2018-04-16T10:59:34.810Z,3.17
2018-04-16T11:02:01.124Z,4.27
2018-04-16T11:04:27.474Z,3.77
2018-04-16T11:06:54.526Z,3.90
2018-04-16T11:09:20.811Z,3.30
2018-04-16T11:11:47.834Z,2.90
2018-04-16T11:14:14.158Z,3.70
2018-04-16T11:16:40.451Z,3.40
2018-04-16T11:19:07.520Z,3.50
2018-04-16T11:21:34.533Z,3.80
2018-04-16T11:24:00.808Z,3.07
2018-04-16T11:26:27.117Z,5.77
2018-04-16T11:28:53.462Z,3.40
2018-04-16T11:31:19.766Z,3.70
2018-04-16T11:33:46.801Z,3.90
2018-04-16T11:36:13.134Z,3.80
2018-04-16T11:38:39.402Z,2.97
2018-04-16T11:41:05.707Z,3.97
2018-04-16T11:43:32.004Z,3.30
2018-04-16T11:45:58.288Z,3.80
2018-04-16T11:48:24.598Z,3.40
2018-04-16T11:50:51.648Z,3.77
2018-04-16T11:53:18.689Z,3.70
2018-04-16T11:55:45.754Z,4.00
2018-04-16T11:58:12.069Z,3.67
2018-04-16T12:00:39.082Z,3.80
2018-04-16T12:03:05.358Z,3.70
2018-04-16T12:05:31.643Z,4.40
2018-04-16T12:07:57.914Z,5.60
2018-04-16T12:10:24.973Z,5.90
2018-04-16T12:12:51.294Z,4.10
2018-04-16T12:15:18.313Z,4.40
2018-04-16T12:17:44.602Z,4.67
2018-04-16T12:20:11.311Z,4.30
2018-04-16T12:22:37.633Z,3.80
2018-04-16T12:25:04.654Z,3.80
2018-04-16T12:27:30.966Z,3.70
2018-04-16T12:29:57.237Z,3.23
2018-04-16T12:32:23.506Z,4.60
2018-04-16T12:34:49.807Z,3.00
2018-04-16T12:37:16.112Z,2.50
2018-04-16T12:39:42.410Z,3.20
2018-04-16T12:42:08.726Z,6.13
2018-04-16T12:44:35.034Z,4.60
2018-04-16T12:47:02.038Z,4.83
2018-04-16T12:49:28.313Z,4.20
2018-04-16T12:51:54.606Z,3.90
2018-04-16T12:54:20.919Z,3.93
2018-04-16T12:56:47.214Z,3.83
2018-04-16T12:59:13.537Z,4.87
2018-04-16T13:01:39.821Z,4.53
2018-04-16T13:04:06.127Z,4.10
2018-04-16T13:06:32.409Z,5.70
2018-04-16T13:08:59.494Z,5.00
2018-04-16T13:11:25.802Z,4.60
2018-04-16T13:13:52.819Z,6.13
2018-04-16T13:16:19.115Z,4.33
2018-04-16T13:18:45.426Z,4.13
2018-04-16T13:21:11.673Z,3.83
2018-04-16T13:23:37.976Z,3.80
2018-04-16T13:26:04.328Z,5.40
2018-04-16T13:28:30.589Z,4.30
2018-04-16T13:30:56.851Z,4.00
2018-04-16T13:33:23.189Z,4.73
2018-04-16T13:35:50.222Z,4.60
2018-04-16T13:38:16.505Z,5.30
2018-04-16T13:40:42.830Z,2.97
2018-04-16T13:43:09.094Z,3.00
2018-04-16T13:45:35.377Z,5.03
2018-04-16T13:48:01.661Z,4.60
2018-04-16T13:50:28.697Z,3.63
2018-04-16T13:52:54.993Z,3.27
2018-04-16T13:55:21.305Z,4.53
2018-04-16T13:57:47.565Z,3.80
2018-04-16T14:00:13.872Z,3.67
2018-04-16T14:02:40.142Z,3.30
2018-04-16T14:05:06.467Z,2.43
2018-04-16T14:07:32.754Z,2.60
2018-04-16T14:09:59.043Z,3.10
2018-04-16T14:12:25.370Z,2.40
2018-04-16T14:14:51.649Z,3.17
2018-04-16T14:17:17.933Z,3.67
2018-04-16T14:19:45.119Z,3.10
2018-04-16T14:22:11.418Z,3.13
2018-04-16T14:24:37.686Z,5.40
2018-04-16T14:27:03.961Z,2.90
2018-04-16T14:29:30.308Z,2.90
2018-04-16T14:31:56.547Z,2.70
2018-04-16T14:34:22.830Z,2.50
2018-04-16T14:36:49.107Z,3.43
2018-04-16T14:39:16.171Z,3.00
2018-04-16T14:41:43.218Z,2.13
2018-04-16T14:44:10.295Z,2.70
2018-04-16T14:46:36.610Z,3.40
2018-04-16T14:49:02.886Z,2.70
2018-04-16T14:51:29.169Z,2.37
2018-04-16T14:53:56.190Z,2.17
2018-04-16T14:56:22.509Z,4.57
2018-04-16T14:58:48.851Z,2.10
2018-04-16T15:01:15.121Z,2.50
2018-04-16T15:03:41.422Z,2.00
2018-04-16T15:06:08.438Z,2.10
2018-04-16T15:08:34.697Z,2.70
2018-04-16T15:11:01.733Z,3.13
2018-04-16T15:13:28.776Z,2.00
2018-04-16T15:15:55.130Z,2.80
2018-04-16T15:18:22.202Z,2.30
2018-04-16T15:20:49.200Z,2.20
2018-04-16T15:23:15.477Z,2.30
2018-04-16T15:25:41.751Z,3.50
2018-04-16T15:28:08.009Z,1.77
2018-04-16T15:30:35.045Z,3.20
2018-04-16T15:33:02.135Z,2.40
2018-04-16T15:35:28.406Z,3.37
2018-04-16T15:37:54.666Z,2.20
2018-04-16T15:40:21.746Z,2.60
2018-04-16T15:42:48.012Z,2.57
2018-04-16T15:45:14.346Z,2.30
2018-04-16T15:47:40.632Z,2.83
2018-04-16T15:50:06.918Z,3.40
2018-04-16T15:52:33.191Z,2.20
2018-04-16T15:54:59.489Z,2.63
2018-04-16T15:57:26.550Z,2.30
2018-04-16T15:59:52.818Z,2.10
2018-04-16T16:02:19.128Z,2.37
2018-04-16T16:04:45.411Z,3.00
2018-04-16T16:07:11.682Z,2.07
2018-04-16T16:09:37.967Z,2.53
2018-04-16T16:12:04.261Z,2.47
2018-04-16T16:14:30.532Z,2.37
2018-04-16T16:16:56.807Z,2.63
2018-04-16T16:19:23.193Z,2.20
2018-04-16T16:21:49.458Z,3.03
2018-04-16T16:24:15.768Z,3.60
2018-04-16T16:26:42.147Z,2.77
2018-04-16T16:29:08.462Z,2.60
2018-04-16T16:31:34.747Z,3.30
2018-04-16T16:34:01.004Z,2.80
2018-04-16T16:36:27.295Z,3.20
2018-04-16T16:38:53.602Z,2.00
2018-04-16T16:41:19.919Z,2.10
2018-04-16T16:43:46.225Z,4.23
2018-04-16T16:46:12.553Z,4.10
2018-04-16T16:48:39.576Z,3.43
2018-04-16T16:51:05.842Z,3.90
2018-04-16T16:53:32.133Z,2.53
2018-04-16T16:55:58.436Z,2.30
2018-04-16T16:58:24.710Z,2.53
2018-04-16T17:00:51.753Z,3.10
2018-04-16T17:03:18.044Z,2.50
2018-04-16T17:05:44.315Z,3.90
2018-04-16T17:08:11.367Z,3.17
2018-04-16T17:10:38.381Z,2.37
2018-04-16T17:13:04.661Z,2.30
2018-04-16T17:15:30.946Z,2.40
2018-04-16T17:17:57.249Z,3.83
2018-04-16T17:20:23.574Z,2.80
2018-04-16T17:22:49.822Z,3.33
2018-04-16T17:25:16.090Z,2.43
2018-04-16T17:27:42.466Z,3.73
2018-04-16T17:30:08.790Z,1.77
2018-04-16T17:32:35.724Z,2.43
2018-04-16T17:35:02.051Z,3.10
2018-04-16T17:37:28.346Z,3.40
2018-04-16T17:39:54.593Z,3.50
2018-04-16T17:42:21.702Z,3.87
2018-04-16T17:44:47.966Z,4.13
2018-04-16T17:47:15.027Z,3.00
2018-04-16T17:49:41.305Z,3.57
2018-04-16T17:52:07.591Z,3.53
2018-04-16T17:54:33.878Z,2.67
2018-04-16T17:57:00.158Z,2.87
2018-04-16T17:59:26.481Z,2.90
2018-04-16T18:01:53.525Z,2.23
2018-04-16T18:04:20.518Z,2.40
2018-04-16T18:06:46.802Z,2.50
2018-04-16T18:09:13.825Z,2.57
2018-04-16T18:11:40.846Z,3.37
2018-04-16T18:14:07.159Z,2.90
2018-04-16T18:16:33.428Z,2.90
2018-04-16T18:18:59.718Z,4.00
2018-04-16T18:21:26.056Z,3.20
2018-04-16T18:23:52.350Z,2.07
2018-04-16T18:26:18.612Z,3.10
2018-04-16T18:28:45.209Z,3.50
2018-04-16T18:31:11.526Z,2.37
2018-04-16T18:33:38.545Z,3.27
2018-04-16T18:36:04.852Z,3.03
2018-04-16T18:38:31.898Z,3.03
2018-04-16T18:40:58.163Z,3.47
2018-04-16T18:43:24.407Z,3.10
2018-04-16T18:45:50.732Z,2.63
2018-04-16T18:48:17.042Z,3.63
2018-04-16T18:50:44.221Z,4.20
2018-04-16T18:53:10.478Z,8.47
2018-04-16T18:55:36.791Z,4.47
2018-04-16T18:58:03.907Z,4.57
2018-04-16T19:00:30.181Z,5.10
2018-04-16T19:02:56.474Z,4.03
2018-04-16T19:05:22.754Z,4.53
2018-04-16T19:07:49.039Z,4.47
2018-04-16T19:10:15.368Z,2.93
2018-04-16T19:12:41.626Z,3.33
2018-04-16T19:15:09.151Z,4.10
2018-04-16T19:17:41.459Z,4.80
2018-04-16T19:20:07.782Z,4.50
2018-04-16T19:22:34.987Z,3.70
2018-04-16T19:25:01.416Z,3.20
2018-04-16T19:27:33.812Z,4.00
2018-04-16T19:30:00.131Z,4.00
2018-04-16T19:32:26.414Z,3.70
2018-04-16T19:34:58.919Z,4.23
2018-04-16T19:37:25.174Z,4.60
2018-04-16T19:39:51.445Z,4.23
2018-04-16T19:42:24.473Z,4.83
2018-04-16T19:44:50.789Z,4.57
2018-04-16T19:47:17.052Z,4.13
2018-04-16T19:49:49.410Z,3.83
2018-04-16T19:52:15.722Z,2.87
2018-04-16T19:54:42.734Z,2.67
2018-04-16T19:57:15.950Z,3.83
2018-04-16T19:59:42.210Z,3.93
2018-04-16T20:02:14.662Z,3.90
2018-04-16T20:04:41.006Z,3.90
2018-04-16T20:07:07.261Z,4.70
2018-04-16T20:09:33.558Z,6.10
2018-04-16T20:11:59.838Z,4.30
2018-04-16T20:14:26.123Z,4.33
2018-04-16T20:16:52.396Z,4.87
2018-04-16T20:19:18.690Z,3.10
2018-04-16T20:21:44.954Z,4.23
2018-04-16T20:24:11.230Z,3.90
2018-04-16T20:26:37.495Z,4.00
2018-04-16T20:29:03.831Z,4.27
2018-04-16T20:31:30.246Z,4.50
2018-04-16T20:33:56.522Z,4.70
2018-04-16T20:36:23.555Z,3.73
2018-04-16T20:38:49.873Z,3.57
2018-04-16T20:41:16.171Z,3.60
2018-04-16T20:43:42.425Z,3.23
2018-04-16T20:46:08.774Z,4.63
2018-04-16T20:48:35.115Z,4.33
2018-04-16T20:51:02.140Z,6.97
2018-04-16T20:53:28.623Z,5.27
2018-04-16T20:55:55.699Z,4.03
2018-04-16T20:58:22.046Z,3.93
2018-04-16T21:00:48.389Z,3.67
2018-04-16T21:03:14.890Z,4.90
2018-04-16T21:05:41.171Z,5.10
2018-04-16T21:08:07.438Z,6.10
2018-04-16T21:10:33.706Z,5.00
2018-04-16T21:13:00.010Z,5.00
2018-04-16T21:15:26.278Z,5.50
2018-04-16T21:17:52.566Z,4.20
2018-04-16T21:20:18.916Z,7.10
2018-04-16T21:22:45.354Z,5.00
2018-04-16T21:25:11.729Z,5.50
2018-04-16T21:27:38.786Z,4.73
2018-04-16T21:30:05.782Z,4.80
2018-04-16T21:32:32.038Z,5.13
2018-04-16T21:34:58.453Z,11.70
2018-04-16T21:37:24.714Z,15.13
2018-04-16T21:39:51.717Z,12.50
2018-04-16T21:42:17.962Z,7.23
2018-04-16T21:44:44.230Z,7.53
2018-04-16T21:47:11.291Z,10.07
2018-04-16T21:49:37.566Z,8.60
2018-04-16T21:52:03.835Z,7.33
2018-04-16T21:54:30.842Z,8.17
2018-04-16T21:56:57.232Z,11.60
2018-04-16T21:59:23.422Z,5.87
2018-04-16T22:01:49.723Z,5.60
2018-04-16T22:04:16.915Z,4.30
2018-04-16T22:06:43.177Z,5.90
2018-04-16T22:09:09.454Z,6.70
2018-04-16T22:11:36.489Z,6.90
2018-04-16T22:14:02.930Z,6.20
2018-04-16T22:16:29.195Z,6.10
2018-04-16T22:18:55.501Z,6.20
2018-04-16T22:21:21.762Z,6.33
2018-04-16T22:23:48.038Z,5.20
2018-04-16T22:26:14.318Z,6.23
2018-04-16T22:28:40.594Z,6.00
2018-04-16T22:31:06.862Z,6.40
2018-04-16T22:33:33.234Z,6.63
2018-04-16T22:36:00.219Z,5.03
2018-04-16T22:38:26.473Z,5.53
2018-04-16T22:40:53.449Z,6.00
2018-04-16T22:43:19.733Z,5.93
2018-04-16T22:45:46.017Z,6.37
2018-04-16T22:48:12.301Z,5.33
2018-04-16T22:50:39.338Z,6.20
2018-04-16T22:53:05.625Z,6.03
2018-04-16T22:55:31.898Z,5.67
2018-04-16T22:57:58.184Z,6.80
2018-04-16T23:00:24.484Z,5.47
2018-04-16T23:02:50.742Z,6.37
2018-04-16T23:05:17.012Z,6.20
2018-04-16T23:07:43.265Z,5.27
2018-04-16T23:10:10.277Z,5.57
2018-04-16T23:12:36.547Z,6.17
2018-04-16T23:15:03.568Z,7.80
2018-04-16T23:17:29.857Z,5.83
2018-04-16T23:19:56.137Z,7.77
2018-04-16T23:22:22.427Z,6.70
2018-04-16T23:24:48.693Z,6.63
2018-04-16T23:27:15.792Z,5.45
2018-04-16T23:29:42.002Z,6.47
2018-04-16T23:32:08.277Z,7.90
2018-04-16T23:34:34.553Z,6.50
2018-04-16T23:37:00.816Z,5.93
2018-04-16T23:39:27.108Z,6.05
2018-04-16T23:41:53.363Z,6.53
2018-04-16T23:44:19.658Z,6.43
2018-04-16T23:46:46.677Z,6.62
2018-04-16T23:49:12.914Z,5.27
2018-04-16T23:51:39.182Z,6.30
2018-04-16T23:54:05.449Z,5.50
2018-04-16T23:56:31.738Z,5.67
2018-04-16T23:58:58.021Z,6.00
